Atmautluak, Alaska
Current Conditions -  °F | °C
As of 9:53 PM on Sunday 21 Dec 2014 (Local Time) from PABE Reporting Station
Clear Clear  
Wind Chill: -15°   Ceiling: Unl
Heat Index:   Visibility: 10mi
Dew Point: -3°   Wind: 9mph
Humidity: 88%   Direction: 320°NW
Pressure: 29.66"   Gusts: NA
Location:  60.7494°N, 161.727°W
Report Text: PABE 220653Z 32008KT 10SM CLR M18/M19 A2966 RMK AO2 SLP046 T11781194
Loading
Personal Weather Stations






























Interactive Weather Map New forecast layout! Learn more

10-Day Weather Forecast

Advertisements
Track Severe Weather on mobile